sensor_id;sensor_type;location;lat;lon;timestamp;P1;durP1;ratioP1;P2;durP2;ratioP2
39792;SDS011;26080;42.264;24.536;2023-03-04T00:01:35;8.18;;;4.88;;
39792;SDS011;26080;42.264;24.536;2023-03-04T00:04:00;15.18;;;3.47;;
39792;SDS011;26080;42.264;24.536;2023-03-04T00:06:25;5.97;;;4.65;;
39792;SDS011;26080;42.264;24.536;2023-03-04T00:08:51;5.55;;;4.55;;
39792;SDS011;26080;42.264;24.536;2023-03-04T00:11:17;5.38;;;3.58;;
39792;SDS011;26080;42.264;24.536;2023-03-04T00:13:42;7.03;;;3.53;;
39792;SDS011;26080;42.264;24.536;2023-03-04T00:16:08;4.00;;;3.05;;
39792;SDS011;26080;42.264;24.536;2023-03-04T00:18:34;6.38;;;5.40;;
39792;SDS011;26080;42.264;24.536;2023-03-04T00:20:59;4.93;;;4.55;;
39792;SDS011;26080;42.264;24.536;2023-03-04T00:23:25;5.15;;;3.42;;
39792;SDS011;26080;42.264;24.536;2023-03-04T00:25:50;5.43;;;3.10;;
39792;SDS011;26080;42.264;24.536;2023-03-04T00:28:16;9.20;;;4.22;;
39792;SDS011;26080;42.264;24.536;2023-03-04T00:30:41;8.88;;;5.18;;
39792;SDS011;26080;42.264;24.536;2023-03-04T00:33:07;2.28;;;2.17;;
39792;SDS011;26080;42.264;24.536;2023-03-04T00:35:32;6.03;;;4.13;;
39792;SDS011;26080;42.264;24.536;2023-03-04T00:37:58;9.13;;;4.78;;
39792;SDS011;26080;42.264;24.536;2023-03-04T00:40:23;4.90;;;3.95;;
39792;SDS011;26080;42.264;24.536;2023-03-04T00:42:49;7.78;;;5.35;;
39792;SDS011;26080;42.264;24.536;2023-03-04T00:45:15;6.55;;;5.53;;
39792;SDS011;26080;42.264;24.536;2023-03-04T00:47:40;8.05;;;3.92;;
39792;SDS011;26080;42.264;24.536;2023-03-04T00:50:06;3.30;;;3.00;;
39792;SDS011;26080;42.264;24.536;2023-03-04T00:52:31;6.32;;;2.78;;
39792;SDS011;26080;42.264;24.536;2023-03-04T00:54:57;7.07;;;4.90;;
39792;SDS011;26080;42.264;24.536;2023-03-04T00:57:22;10.20;;;4.95;;
39792;SDS011;26080;42.264;24.536;2023-03-04T00:59:48;5.93;;;3.05;;
39792;SDS011;26080;42.264;24.536;2023-03-04T01:02:13;2.42;;;2.22;;
39792;SDS011;26080;42.264;24.536;2023-03-04T01:04:39;2.97;;;2.70;;
39792;SDS011;26080;42.264;24.536;2023-03-04T01:07:05;4.95;;;2.95;;
39792;SDS011;26080;42.264;24.536;2023-03-04T01:09:31;5.43;;;4.65;;
39792;SDS011;26080;42.264;24.536;2023-03-04T01:11:57;3.63;;;3.33;;
39792;SDS011;26080;42.264;24.536;2023-03-04T01:14:23;6.13;;;3.33;;
39792;SDS011;26080;42.264;24.536;2023-03-04T01:16:48;14.27;;;4.45;;
39792;SDS011;26080;42.264;24.536;2023-03-04T01:19:14;2.45;;;2.25;;
39792;SDS011;26080;42.264;24.536;2023-03-04T01:21:40;5.47;;;4.47;;
39792;SDS011;26080;42.264;24.536;2023-03-04T01:24:06;7.60;;;3.13;;
39792;SDS011;26080;42.264;24.536;2023-03-04T01:26:31;5.68;;;3.15;;
39792;SDS011;26080;42.264;24.536;2023-03-04T01:28:57;5.10;;;3.78;;
39792;SDS011;26080;42.264;24.536;2023-03-04T01:31:22;3.95;;;3.63;;
39792;SDS011;26080;42.264;24.536;2023-03-04T01:33:48;4.95;;;3.40;;
39792;SDS011;26080;42.264;24.536;2023-03-04T01:36:13;6.18;;;3.42;;
39792;SDS011;26080;42.264;24.536;2023-03-04T01:38:39;5.60;;;3.65;;
39792;SDS011;26080;42.264;24.536;2023-03-04T01:41:05;4.15;;;3.05;;
39792;SDS011;26080;42.264;24.536;2023-03-04T01:43:31;5.78;;;3.80;;
39792;SDS011;26080;42.264;24.536;2023-03-04T01:45:59;4.53;;;4.10;;
39792;SDS011;26080;42.264;24.536;2023-03-04T01:48:30;13.80;;;6.05;;
39792;SDS011;26080;42.264;24.536;2023-03-04T01:51:00;3.75;;;3.45;;
39792;SDS011;26080;42.264;24.536;2023-03-04T01:53:28;3.92;;;3.63;;
39792;SDS011;26080;42.264;24.536;2023-03-04T01:55:56;4.72;;;4.05;;
39792;SDS011;26080;42.264;24.536;2023-03-04T01:58:25;6.72;;;3.78;;
39792;SDS011;26080;42.264;24.536;2023-03-04T02:00:53;4.75;;;3.38;;
39792;SDS011;26080;42.264;24.536;2023-03-04T02:03:19;6.43;;;4.30;;
39792;SDS011;26080;42.264;24.536;2023-03-04T02:05:45;2.53;;;2.35;;
39792;SDS011;26080;42.264;24.536;2023-03-04T02:08:14;4.00;;;3.40;;
39792;SDS011;26080;42.264;24.536;2023-03-04T02:10:42;6.00;;;4.65;;
39792;SDS011;26080;42.264;24.536;2023-03-04T02:13:08;5.68;;;3.90;;
39792;SDS011;26080;42.264;24.536;2023-03-04T02:15:34;6.00;;;4.22;;
39792;SDS011;26080;42.264;24.536;2023-03-04T02:18:00;3.65;;;3.35;;
39792;SDS011;26080;42.264;24.536;2023-03-04T02:23:09;3.65;;;3.05;;
39792;SDS011;26080;42.264;24.536;2023-03-04T02:25:50;4.38;;;3.75;;
39792;SDS011;26080;42.264;24.536;2023-03-04T02:28:32;6.03;;;3.47;;
39792;SDS011;26080;42.264;24.536;2023-03-04T02:30:58;6.60;;;3.85;;
39792;SDS011;26080;42.264;24.536;2023-03-04T02:33:23;4.32;;;2.53;;
39792;SDS011;26080;42.264;24.536;2023-03-04T02:35:49;6.95;;;4.95;;
39792;SDS011;26080;42.264;24.536;2023-03-04T02:38:14;11.07;;;6.00;;
39792;SDS011;26080;42.264;24.536;2023-03-04T02:40:40;8.80;;;4.93;;
39792;SDS011;26080;42.264;24.536;2023-03-04T02:43:10;8.13;;;5.57;;
39792;SDS011;26080;42.264;24.536;2023-03-04T02:45:46;4.30;;;3.95;;
39792;SDS011;26080;42.264;24.536;2023-03-04T02:48:16;8.23;;;5.32;;
39792;SDS011;26080;42.264;24.536;2023-03-04T02:50:48;9.95;;;6.55;;
39792;SDS011;26080;42.264;24.536;2023-03-04T02:53:15;9.07;;;5.22;;
39792;SDS011;26080;42.264;24.536;2023-03-04T02:55:41;6.55;;;4.18;;
39792;SDS011;26080;42.264;24.536;2023-03-04T02:58:07;8.05;;;5.75;;
39792;SDS011;26080;42.264;24.536;2023-03-04T03:00:33;5.43;;;3.72;;
39792;SDS011;26080;42.264;24.536;2023-03-04T03:02:59;2.97;;;2.63;;
39792;SDS011;26080;42.264;24.536;2023-03-04T03:05:25;5.63;;;2.63;;
39792;SDS011;26080;42.264;24.536;2023-03-04T03:07:53;6.00;;;3.47;;
39792;SDS011;26080;42.264;24.536;2023-03-04T03:10:19;3.78;;;3.47;;
39792;SDS011;26080;42.264;24.536;2023-03-04T03:12:45;4.60;;;2.95;;
39792;SDS011;26080;42.264;24.536;2023-03-04T03:15:10;4.93;;;3.65;;
39792;SDS011;26080;42.264;24.536;2023-03-04T03:17:36;7.22;;;5.50;;
39792;SDS011;26080;42.264;24.536;2023-03-04T03:20:02;7.35;;;4.50;;
39792;SDS011;26080;42.264;24.536;2023-03-04T03:22:31;5.65;;;4.05;;
39792;SDS011;26080;42.264;24.536;2023-03-04T03:24:57;10.50;;;5.07;;
39792;SDS011;26080;42.264;24.536;2023-03-04T03:27:22;5.78;;;4.15;;
39792;SDS011;26080;42.264;24.536;2023-03-04T03:29:48;6.78;;;6.20;;
39792;SDS011;26080;42.264;24.536;2023-03-04T03:32:13;3.03;;;2.75;;
39792;SDS011;26080;42.264;24.536;2023-03-04T03:34:39;5.28;;;4.80;;
39792;SDS011;26080;42.264;24.536;2023-03-04T03:37:04;7.43;;;4.35;;
39792;SDS011;26080;42.264;24.536;2023-03-04T03:39:30;5.15;;;4.40;;
39792;SDS011;26080;42.264;24.536;2023-03-04T03:41:55;7.25;;;6.55;;
39792;SDS011;26080;42.264;24.536;2023-03-04T03:44:20;5.90;;;5.32;;
39792;SDS011;26080;42.264;24.536;2023-03-04T03:46:46;6.07;;;5.45;;
39792;SDS011;26080;42.264;24.536;2023-03-04T03:49:11;8.25;;;6.13;;
39792;SDS011;26080;42.264;24.536;2023-03-04T03:51:37;4.35;;;3.72;;
39792;SDS011;26080;42.264;24.536;2023-03-04T03:54:03;15.73;;;6.70;;
39792;SDS011;26080;42.264;24.536;2023-03-04T03:56:29;6.47;;;5.88;;
39792;SDS011;26080;42.264;24.536;2023-03-04T03:58:54;6.22;;;4.43;;
39792;SDS011;26080;42.264;24.536;2023-03-04T04:01:19;3.78;;;3.45;;
39792;SDS011;26080;42.264;24.536;2023-03-04T04:03:45;10.90;;;6.38;;
39792;SDS011;26080;42.264;24.536;2023-03-04T04:06:10;11.98;;;8.57;;
39792;SDS011;26080;42.264;24.536;2023-03-04T04:08:36;6.65;;;6.03;;
39792;SDS011;26080;42.264;24.536;2023-03-04T04:11:02;8.52;;;4.72;;
39792;SDS011;26080;42.264;24.536;2023-03-04T04:13:27;8.45;;;6.05;;
39792;SDS011;26080;42.264;24.536;2023-03-04T04:15:53;6.75;;;5.20;;
39792;SDS011;26080;42.264;24.536;2023-03-04T04:18:18;9.13;;;5.25;;
39792;SDS011;26080;42.264;24.536;2023-03-04T04:20:44;9.00;;;6.75;;
39792;SDS011;26080;42.264;24.536;2023-03-04T04:23:10;5.80;;;4.68;;
39792;SDS011;26080;42.264;24.536;2023-03-04T04:25:36;5.93;;;5.00;;
39792;SDS011;26080;42.264;24.536;2023-03-04T04:28:01;9.32;;;4.97;;
39792;SDS011;26080;42.264;24.536;2023-03-04T04:30:27;6.47;;;5.88;;
39792;SDS011;26080;42.264;24.536;2023-03-04T04:32:52;7.50;;;5.32;;
39792;SDS011;26080;42.264;24.536;2023-03-04T04:35:18;3.38;;;2.97;;
39792;SDS011;26080;42.264;24.536;2023-03-04T04:37:43;5.30;;;2.45;;
39792;SDS011;26080;42.264;24.536;2023-03-04T04:40:09;6.10;;;5.43;;
39792;SDS011;26080;42.264;24.536;2023-03-04T04:42:35;3.25;;;3.00;;
39792;SDS011;26080;42.264;24.536;2023-03-04T04:45:00;4.72;;;3.30;;
39792;SDS011;26080;42.264;24.536;2023-03-04T04:47:26;3.10;;;2.67;;
39792;SDS011;26080;42.264;24.536;2023-03-04T04:49:51;4.07;;;3.63;;
39792;SDS011;26080;42.264;24.536;2023-03-04T04:52:17;4.13;;;3.45;;
39792;SDS011;26080;42.264;24.536;2023-03-04T04:54:45;4.53;;;3.63;;
39792;SDS011;26080;42.264;24.536;2023-03-04T04:57:11;5.50;;;4.65;;
39792;SDS011;26080;42.264;24.536;2023-03-04T04:59:36;6.47;;;3.90;;
39792;SDS011;26080;42.264;24.536;2023-03-04T05:02:02;6.57;;;4.55;;
39792;SDS011;26080;42.264;24.536;2023-03-04T05:04:27;9.48;;;5.45;;
39792;SDS011;26080;42.264;24.536;2023-03-04T05:06:52;4.57;;;3.13;;
39792;SDS011;26080;42.264;24.536;2023-03-04T05:09:18;9.88;;;4.07;;
39792;SDS011;26080;42.264;24.536;2023-03-04T05:11:47;6.50;;;3.35;;
39792;SDS011;26080;42.264;24.536;2023-03-04T05:14:12;4.53;;;3.60;;
39792;SDS011;26080;42.264;24.536;2023-03-04T05:16:38;5.13;;;3.47;;
39792;SDS011;26080;42.264;24.536;2023-03-04T05:19:03;5.90;;;4.00;;
39792;SDS011;26080;42.264;24.536;2023-03-04T05:21:29;3.45;;;3.15;;
39792;SDS011;26080;42.264;24.536;2023-03-04T05:23:54;13.60;;;5.18;;
39792;SDS011;26080;42.264;24.536;2023-03-04T05:26:20;6.30;;;4.43;;
39792;SDS011;26080;42.264;24.536;2023-03-04T05:28:45;11.13;;;5.13;;
39792;SDS011;26080;42.264;24.536;2023-03-04T05:31:11;5.20;;;4.35;;
39792;SDS011;26080;42.264;24.536;2023-03-04T05:33:37;5.90;;;4.00;;
39792;SDS011;26080;42.264;24.536;2023-03-04T05:36:03;5.22;;;3.95;;
39792;SDS011;26080;42.264;24.536;2023-03-04T05:38:29;6.28;;;4.10;;
39792;SDS011;26080;42.264;24.536;2023-03-04T05:41:05;2.50;;;2.22;;
39792;SDS011;26080;42.264;24.536;2023-03-04T05:43:32;2.38;;;2.17;;
39792;SDS011;26080;42.264;24.536;2023-03-04T05:46:00;4.43;;;4.03;;
39792;SDS011;26080;42.264;24.536;2023-03-04T05:48:27;3.85;;;3.53;;
39792;SDS011;26080;42.264;24.536;2023-03-04T05:50:56;8.23;;;3.08;;
39792;SDS011;26080;42.264;24.536;2023-03-04T05:53:23;17.52;;;5.75;;
39792;SDS011;26080;42.264;24.536;2023-03-04T05:55:49;20.05;;;13.55;;
39792;SDS011;26080;42.264;24.536;2023-03-04T05:58:15;11.30;;;6.25;;
39792;SDS011;26080;42.264;24.536;2023-03-04T06:00:41;9.00;;;8.05;;
39792;SDS011;26080;42.264;24.536;2023-03-04T06:03:12;9.57;;;7.93;;
39792;SDS011;26080;42.264;24.536;2023-03-04T06:05:42;9.18;;;6.78;;
39792;SDS011;26080;42.264;24.536;2023-03-04T06:08:08;15.10;;;8.43;;
39792;SDS011;26080;42.264;24.536;2023-03-04T06:10:34;9.80;;;7.07;;
39792;SDS011;26080;42.264;24.536;2023-03-04T06:12:59;8.00;;;7.20;;
39792;SDS011;26080;42.264;24.536;2023-03-04T06:15:25;12.60;;;7.22;;
39792;SDS011;26080;42.264;24.536;2023-03-04T06:17:50;12.75;;;8.05;;
39792;SDS011;26080;42.264;24.536;2023-03-04T06:20:15;13.07;;;9.75;;
39792;SDS011;26080;42.264;24.536;2023-03-04T06:22:41;14.65;;;8.15;;
39792;SDS011;26080;42.264;24.536;2023-03-04T06:25:07;8.63;;;7.68;;
39792;SDS011;26080;42.264;24.536;2023-03-04T06:27:32;9.48;;;5.57;;
39792;SDS011;26080;42.264;24.536;2023-03-04T06:29:58;8.50;;;5.57;;
39792;SDS011;26080;42.264;24.536;2023-03-04T06:32:24;18.20;;;4.68;;
39792;SDS011;26080;42.264;24.536;2023-03-04T06:34:49;9.13;;;4.70;;
39792;SDS011;26080;42.264;24.536;2023-03-04T06:37:15;3.97;;;3.03;;
39792;SDS011;26080;42.264;24.536;2023-03-04T06:39:40;16.58;;;8.02;;
39792;SDS011;26080;42.264;24.536;2023-03-04T06:42:06;14.57;;;6.78;;
39792;SDS011;26080;42.264;24.536;2023-03-04T06:44:31;19.25;;;9.40;;
39792;SDS011;26080;42.264;24.536;2023-03-04T06:46:57;13.30;;;10.27;;
39792;SDS011;26080;42.264;24.536;2023-03-04T06:49:22;17.40;;;5.68;;
39792;SDS011;26080;42.264;24.536;2023-03-04T06:51:48;8.38;;;6.65;;
39792;SDS011;26080;42.264;24.536;2023-03-04T06:54:14;11.32;;;5.90;;
39792;SDS011;26080;42.264;24.536;2023-03-04T06:56:39;6.65;;;5.47;;
39792;SDS011;26080;42.264;24.536;2023-03-04T06:59:05;7.88;;;5.43;;
39792;SDS011;26080;42.264;24.536;2023-03-04T07:01:30;5.78;;;4.07;;
39792;SDS011;26080;42.264;24.536;2023-03-04T07:03:56;7.13;;;4.38;;
39792;SDS011;26080;42.264;24.536;2023-03-04T07:06:23;12.50;;;8.43;;
39792;SDS011;26080;42.264;24.536;2023-03-04T07:08:50;9.00;;;5.82;;
39792;SDS011;26080;42.264;24.536;2023-03-04T07:11:20;6.47;;;4.85;;
39792;SDS011;26080;42.264;24.536;2023-03-04T07:13:46;13.85;;;5.45;;
39792;SDS011;26080;42.264;24.536;2023-03-04T07:16:13;12.00;;;3.83;;
39792;SDS011;26080;42.264;24.536;2023-03-04T07:18:41;5.78;;;4.38;;
39792;SDS011;26080;42.264;24.536;2023-03-04T07:21:08;6.22;;;4.43;;
39792;SDS011;26080;42.264;24.536;2023-03-04T07:23:36;3.38;;;2.78;;
39792;SDS011;26080;42.264;24.536;2023-03-04T07:26:08;7.20;;;4.05;;
39792;SDS011;26080;42.264;24.536;2023-03-04T07:28:34;6.95;;;4.78;;
39792;SDS011;26080;42.264;24.536;2023-03-04T07:31:10;5.40;;;3.90;;
39792;SDS011;26080;42.264;24.536;2023-03-04T07:33:59;6.28;;;3.53;;
39792;SDS011;26080;42.264;24.536;2023-03-04T07:36:27;4.40;;;2.53;;
39792;SDS011;26080;42.264;24.536;2023-03-04T07:38:53;13.35;;;5.10;;
39792;SDS011;26080;42.264;24.536;2023-03-04T07:41:19;9.02;;;3.03;;
39792;SDS011;26080;42.264;24.536;2023-03-04T07:43:46;6.38;;;4.45;;
39792;SDS011;26080;42.264;24.536;2023-03-04T07:46:12;6.43;;;4.93;;
39792;SDS011;26080;42.264;24.536;2023-03-04T07:48:37;5.45;;;3.78;;
39792;SDS011;26080;42.264;24.536;2023-03-04T07:51:10;9.82;;;5.35;;
39792;SDS011;26080;42.264;24.536;2023-03-04T07:53:41;5.75;;;3.28;;
39792;SDS011;26080;42.264;24.536;2023-03-04T07:56:10;2.85;;;2.50;;
39792;SDS011;26080;42.264;24.536;2023-03-04T07:58:37;8.82;;;4.15;;
39792;SDS011;26080;42.264;24.536;2023-03-04T08:01:12;10.23;;;7.90;;
39792;SDS011;26080;42.264;24.536;2023-03-04T08:03:41;5.00;;;4.25;;
39792;SDS011;26080;42.264;24.536;2023-03-04T08:06:08;8.98;;;6.45;;
39792;SDS011;26080;42.264;24.536;2023-03-04T08:08:35;6.80;;;5.50;;
39792;SDS011;26080;42.264;24.536;2023-03-04T08:11:08;15.73;;;7.35;;
39792;SDS011;26080;42.264;24.536;2023-03-04T08:13:36;9.90;;;6.70;;
39792;SDS011;26080;42.264;24.536;2023-03-04T08:16:02;7.93;;;6.10;;
39792;SDS011;26080;42.264;24.536;2023-03-04T08:18:29;11.32;;;7.90;;
39792;SDS011;26080;42.264;24.536;2023-03-04T08:20:54;20.80;;;9.45;;
39792;SDS011;26080;42.264;24.536;2023-03-04T08:23:20;19.20;;;6.47;;
39792;SDS011;26080;42.264;24.536;2023-03-04T08:25:45;10.43;;;6.15;;
39792;SDS011;26080;42.264;24.536;2023-03-04T08:28:11;11.32;;;6.30;;
39792;SDS011;26080;42.264;24.536;2023-03-04T08:30:37;12.65;;;6.07;;
39792;SDS011;26080;42.264;24.536;2023-03-04T08:33:04;14.20;;;7.80;;
39792;SDS011;26080;42.264;24.536;2023-03-04T08:35:30;8.43;;;5.60;;
39792;SDS011;26080;42.264;24.536;2023-03-04T08:37:55;11.93;;;5.20;;
39792;SDS011;26080;42.264;24.536;2023-03-04T08:40:21;10.68;;;5.93;;
39792;SDS011;26080;42.264;24.536;2023-03-04T08:42:48;8.35;;;4.63;;
39792;SDS011;26080;42.264;24.536;2023-03-04T08:45:14;11.32;;;6.03;;
39792;SDS011;26080;42.264;24.536;2023-03-04T08:47:39;26.67;;;11.20;;
39792;SDS011;26080;42.264;24.536;2023-03-04T08:50:05;65.82;;;28.35;;
39792;SDS011;26080;42.264;24.536;2023-03-04T08:52:31;26.23;;;15.40;;
39792;SDS011;26080;42.264;24.536;2023-03-04T08:54:57;10.77;;;8.23;;
39792;SDS011;26080;42.264;24.536;2023-03-04T08:57:22;8.93;;;6.72;;
39792;SDS011;26080;42.264;24.536;2023-03-04T08:59:48;16.20;;;6.70;;
39792;SDS011;26080;42.264;24.536;2023-03-04T09:02:13;16.83;;;10.00;;
39792;SDS011;26080;42.264;24.536;2023-03-04T09:04:39;8.10;;;6.25;;
39792;SDS011;26080;42.264;24.536;2023-03-04T09:07:05;13.00;;;6.50;;
39792;SDS011;26080;42.264;24.536;2023-03-04T09:09:32;11.50;;;6.75;;
39792;SDS011;26080;42.264;24.536;2023-03-04T09:11:58;8.13;;;6.20;;
39792;SDS011;26080;42.264;24.536;2023-03-04T09:14:24;8.93;;;7.10;;
39792;SDS011;26080;42.264;24.536;2023-03-04T09:16:49;11.43;;;5.95;;
39792;SDS011;26080;42.264;24.536;2023-03-04T09:19:14;8.27;;;4.85;;
39792;SDS011;26080;42.264;24.536;2023-03-04T09:21:40;9.93;;;5.82;;
39792;SDS011;26080;42.264;24.536;2023-03-04T09:24:05;13.05;;;5.95;;
39792;SDS011;26080;42.264;24.536;2023-03-04T09:26:31;10.55;;;6.35;;
39792;SDS011;26080;42.264;24.536;2023-03-04T09:28:58;14.45;;;7.43;;
39792;SDS011;26080;42.264;24.536;2023-03-04T09:31:25;15.25;;;8.32;;
39792;SDS011;26080;42.264;24.536;2023-03-04T09:33:56;18.45;;;7.95;;
39792;SDS011;26080;42.264;24.536;2023-03-04T09:36:23;10.65;;;6.65;;
39792;SDS011;26080;42.264;24.536;2023-03-04T09:38:48;7.45;;;5.50;;
39792;SDS011;26080;42.264;24.536;2023-03-04T09:41:16;8.45;;;6.40;;
39792;SDS011;26080;42.264;24.536;2023-03-04T09:43:47;6.10;;;4.70;;
39792;SDS011;26080;42.264;24.536;2023-03-04T09:46:38;9.02;;;5.57;;
39792;SDS011;26080;42.264;24.536;2023-03-04T09:49:03;18.65;;;7.22;;
39792;SDS011;26080;42.264;24.536;2023-03-04T09:54:04;15.82;;;8.07;;
39792;SDS011;26080;42.264;24.536;2023-03-04T09:56:38;15.48;;;7.70;;
39792;SDS011;26080;42.264;24.536;2023-03-04T09:59:10;8.30;;;7.03;;
39792;SDS011;26080;42.264;24.536;2023-03-04T10:01:54;10.65;;;6.43;;
39792;SDS011;26080;42.264;24.536;2023-03-04T10:07:27;10.40;;;8.50;;
39792;SDS011;26080;42.264;24.536;2023-03-04T10:10:03;9.45;;;6.75;;
39792;SDS011;26080;42.264;24.536;2023-03-04T10:12:35;6.90;;;6.15;;
39792;SDS011;26080;42.264;24.536;2023-03-04T10:17:43;15.88;;;8.85;;
39792;SDS011;26080;42.264;24.536;2023-03-04T10:25:33;12.10;;;7.72;;
39792;SDS011;26080;42.264;24.536;2023-03-04T10:28:02;17.20;;;8.55;;
39792;SDS011;26080;42.264;24.536;2023-03-04T10:33:18;7.18;;;5.63;;
39792;SDS011;26080;42.264;24.536;2023-03-04T10:36:02;13.60;;;7.05;;
39792;SDS011;26080;42.264;24.536;2023-03-04T10:38:32;16.83;;;7.78;;
39792;SDS011;26080;42.264;24.536;2023-03-04T10:41:00;13.07;;;8.90;;
39792;SDS011;26080;42.264;24.536;2023-03-04T10:43:35;9.77;;;7.85;;
39792;SDS011;26080;42.264;24.536;2023-03-04T10:46:01;9.88;;;7.78;;
39792;SDS011;26080;42.264;24.536;2023-03-04T10:48:28;11.02;;;6.47;;
39792;SDS011;26080;42.264;24.536;2023-03-04T10:51:11;11.98;;;7.38;;
39792;SDS011;26080;42.264;24.536;2023-03-04T11:05:30;8.48;;;6.30;;
39792;SDS011;26080;42.264;24.536;2023-03-04T11:12:47;13.25;;;7.40;;
39792;SDS011;26080;42.264;24.536;2023-03-04T11:15:31;10.90;;;6.57;;
39792;SDS011;26080;42.264;24.536;2023-03-04T11:21:01;10.60;;;6.75;;
39792;SDS011;26080;42.264;24.536;2023-03-04T11:23:34;11.50;;;7.97;;
39792;SDS011;26080;42.264;24.536;2023-03-04T11:26:09;6.13;;;4.85;;
39792;SDS011;26080;42.264;24.536;2023-03-04T11:31:15;10.93;;;6.38;;
39792;SDS011;26080;42.264;24.536;2023-03-04T11:38:48;7.97;;;6.40;;
39792;SDS011;26080;42.264;24.536;2023-03-04T11:43:57;9.25;;;6.25;;
39792;SDS011;26080;42.264;24.536;2023-03-04T11:51:42;11.57;;;6.32;;
39792;SDS011;26080;42.264;24.536;2023-03-04T11:56:46;7.43;;;5.03;;
39792;SDS011;26080;42.264;24.536;2023-03-04T12:02:19;6.90;;;3.83;;
39792;SDS011;26080;42.264;24.536;2023-03-04T12:10:24;6.53;;;4.32;;
39792;SDS011;26080;42.264;24.536;2023-03-04T12:24:18;9.68;;;6.93;;
39792;SDS011;26080;42.264;24.536;2023-03-04T12:37:21;9.63;;;6.18;;
39792;SDS011;26080;42.264;24.536;2023-03-04T12:45:17;7.18;;;5.18;;
39792;SDS011;26080;42.264;24.536;2023-03-04T12:50:26;13.63;;;7.50;;
39792;SDS011;26080;42.264;24.536;2023-03-04T12:55:54;9.77;;;4.65;;
39792;SDS011;26080;42.264;24.536;2023-03-04T12:58:25;4.55;;;3.42;;
39792;SDS011;26080;42.264;24.536;2023-03-04T13:16:46;7.82;;;5.57;;
39792;SDS011;26080;42.264;24.536;2023-03-04T13:22:53;8.27;;;3.97;;
39792;SDS011;26080;42.264;24.536;2023-03-04T13:24:56;7.03;;;4.22;;
39792;SDS011;26080;42.264;24.536;2023-03-04T13:32:55;4.88;;;3.05;;
39792;SDS011;26080;42.264;24.536;2023-03-04T13:51:26;12.07;;;3.83;;
39792;SDS011;26080;42.264;24.536;2023-03-04T14:04:15;5.57;;;3.08;;
39792;SDS011;26080;42.264;24.536;2023-03-04T14:06:44;6.07;;;3.30;;
39792;SDS011;26080;42.264;24.536;2023-03-04T14:09:14;9.23;;;4.13;;
39792;SDS011;26080;42.264;24.536;2023-03-04T14:12:04;6.85;;;5.38;;
39792;SDS011;26080;42.264;24.536;2023-03-04T14:14:41;3.90;;;3.17;;
39792;SDS011;26080;42.264;24.536;2023-03-04T14:17:16;3.80;;;3.20;;
39792;SDS011;26080;42.264;24.536;2023-03-04T14:19:45;3.45;;;1.85;;
39792;SDS011;26080;42.264;24.536;2023-03-04T14:22:31;4.28;;;2.42;;
39792;SDS011;26080;42.264;24.536;2023-03-04T14:28:10;5.20;;;2.78;;
39792;SDS011;26080;42.264;24.536;2023-03-04T14:30:38;3.88;;;2.20;;
39792;SDS011;26080;42.264;24.536;2023-03-04T14:33:11;3.17;;;2.88;;
39792;SDS011;26080;42.264;24.536;2023-03-04T14:35:39;4.60;;;2.88;;
39792;SDS011;26080;42.264;24.536;2023-03-04T14:38:25;6.10;;;3.75;;
39792;SDS011;26080;42.264;24.536;2023-03-04T14:40:56;6.15;;;3.47;;
39792;SDS011;26080;42.264;24.536;2023-03-04T14:43:34;6.63;;;2.00;;
39792;SDS011;26080;42.264;24.536;2023-03-04T14:46:14;14.60;;;7.47;;
39792;SDS011;26080;42.264;24.536;2023-03-04T14:48:44;5.07;;;2.78;;
39792;SDS011;26080;42.264;24.536;2023-03-04T14:57:15;3.67;;;2.25;;
39792;SDS011;26080;42.264;24.536;2023-03-04T14:59:48;3.38;;;1.67;;
39792;SDS011;26080;42.264;24.536;2023-03-04T15:02:22;5.45;;;3.58;;
39792;SDS011;26080;42.264;24.536;2023-03-04T15:04:55;6.32;;;3.67;;
39792;SDS011;26080;42.264;24.536;2023-03-04T15:07:26;5.75;;;3.35;;
39792;SDS011;26080;42.264;24.536;2023-03-04T15:10:00;6.20;;;3.03;;
39792;SDS011;26080;42.264;24.536;2023-03-04T15:12:29;2.10;;;1.92;;
39792;SDS011;26080;42.264;24.536;2023-03-04T15:14:57;3.58;;;2.55;;
39792;SDS011;26080;42.264;24.536;2023-03-04T15:17:37;3.45;;;2.83;;
39792;SDS011;26080;42.264;24.536;2023-03-04T15:22:30;2.75;;;2.33;;
39792;SDS011;26080;42.264;24.536;2023-03-04T15:25:01;5.88;;;2.30;;
39792;SDS011;26080;42.264;24.536;2023-03-04T15:27:28;4.57;;;2.53;;
39792;SDS011;26080;42.264;24.536;2023-03-04T15:29:56;5.10;;;2.35;;
39792;SDS011;26080;42.264;24.536;2023-03-04T15:32:26;8.13;;;3.70;;
39792;SDS011;26080;42.264;24.536;2023-03-04T15:34:55;5.13;;;2.97;;
39792;SDS011;26080;42.264;24.536;2023-03-04T15:37:21;1.70;;;1.38;;
39792;SDS011;26080;42.264;24.536;2023-03-04T15:39:52;4.00;;;2.17;;
39792;SDS011;26080;42.264;24.536;2023-03-04T15:42:20;7.55;;;3.58;;
39792;SDS011;26080;42.264;24.536;2023-03-04T15:44:45;3.25;;;1.73;;
39792;SDS011;26080;42.264;24.536;2023-03-04T15:47:11;2.88;;;2.25;;
39792;SDS011;26080;42.264;24.536;2023-03-04T15:49:41;5.15;;;2.38;;
39792;SDS011;26080;42.264;24.536;2023-03-04T15:52:16;4.57;;;3.25;;
39792;SDS011;26080;42.264;24.536;2023-03-04T15:54:45;2.58;;;1.95;;
39792;SDS011;26080;42.264;24.536;2023-03-04T15:57:46;6.43;;;2.55;;
39792;SDS011;26080;42.264;24.536;2023-03-04T16:00:04;3.22;;;2.15;;
39792;SDS011;26080;42.264;24.536;2023-03-04T16:02:30;2.80;;;2.50;;
39792;SDS011;26080;42.264;24.536;2023-03-04T16:04:55;12.30;;;4.65;;
39792;SDS011;26080;42.264;24.536;2023-03-04T16:07:24;7.80;;;5.85;;
39792;SDS011;26080;42.264;24.536;2023-03-04T16:09:55;9.55;;;5.18;;
39792;SDS011;26080;42.264;24.536;2023-03-04T16:12:23;14.55;;;6.93;;
39792;SDS011;26080;42.264;24.536;2023-03-04T16:14:50;5.72;;;4.13;;
39792;SDS011;26080;42.264;24.536;2023-03-04T16:17:16;11.68;;;4.50;;
39792;SDS011;26080;42.264;24.536;2023-03-04T16:19:42;20.95;;;8.07;;
39792;SDS011;26080;42.264;24.536;2023-03-04T16:22:09;6.28;;;3.95;;
39792;SDS011;26080;42.264;24.536;2023-03-04T16:24:38;14.52;;;5.22;;
39792;SDS011;26080;42.264;24.536;2023-03-04T16:27:05;4.88;;;4.15;;
39792;SDS011;26080;42.264;24.536;2023-03-04T16:29:34;7.32;;;4.60;;
39792;SDS011;26080;42.264;24.536;2023-03-04T16:32:00;7.88;;;4.72;;
39792;SDS011;26080;42.264;24.536;2023-03-04T16:34:25;13.95;;;6.35;;
39792;SDS011;26080;42.264;24.536;2023-03-04T16:36:51;17.70;;;8.05;;
39792;SDS011;26080;42.264;24.536;2023-03-04T16:39:20;15.27;;;11.15;;
39792;SDS011;26080;42.264;24.536;2023-03-04T16:41:48;14.38;;;8.30;;
39792;SDS011;26080;42.264;24.536;2023-03-04T16:44:14;15.63;;;9.55;;
39792;SDS011;26080;42.264;24.536;2023-03-04T16:46:40;15.70;;;7.93;;
39792;SDS011;26080;42.264;24.536;2023-03-04T16:49:05;17.02;;;8.23;;
39792;SDS011;26080;42.264;24.536;2023-03-04T16:51:33;19.27;;;10.18;;
39792;SDS011;26080;42.264;24.536;2023-03-04T16:54:03;15.18;;;9.15;;
39792;SDS011;26080;42.264;24.536;2023-03-04T16:56:32;20.42;;;7.88;;
39792;SDS011;26080;42.264;24.536;2023-03-04T16:58:57;15.00;;;7.30;;
39792;SDS011;26080;42.264;24.536;2023-03-04T17:01:25;7.78;;;6.30;;
39792;SDS011;26080;42.264;24.536;2023-03-04T17:03:52;10.60;;;4.60;;
39792;SDS011;26080;42.264;24.536;2023-03-04T17:06:18;8.68;;;5.70;;
39792;SDS011;26080;42.264;24.536;2023-03-04T17:08:45;30.00;;;11.90;;
39792;SDS011;26080;42.264;24.536;2023-03-04T17:11:11;18.42;;;8.77;;
39792;SDS011;26080;42.264;24.536;2023-03-04T17:13:40;15.35;;;9.77;;
39792;SDS011;26080;42.264;24.536;2023-03-04T17:16:05;14.70;;;7.35;;